Aviation Digital Data Service (ADDS)

Output produced by METARs form (1106 UTC 18 June 2019)
found at http://www.aviationweather.gov/metar/data/
 
Forecast for: PTKK (WENO IS/CHUUK , FM)
Text: PTKK 180523Z 1806/1906 04008KT P6SM VCSH FEW015 SCT120
Forecast period: 0600 UTC 18 June 2019 to 0600 UTC 19 June 2019
Forecast type: FROM: standard forecast or significant change
Winds: from the NE (40 degrees) at 9 MPH (8 knots; 4.1 m/s)
Visibility: 6 or more miles 10+ km)
Ceiling: at least 12,000 feet AGL
Clouds: few clouds at 1500 feet AGL
scattered clouds at 12000 feet AGL
Weather: VCSH  (showers in vicinity)